Time;durP1;ratioP1;P1;durP2;ratioP2;P2;SDS_P1;SDS_P2;PMS_P1;PMS_P2;Temp;Humidity;BMP_temperature;BMP_pressure;BME280_temperature;BME280_humidity;BME280_pressure;Samples;Min_cycle;Max_cycle;Signal;HPM_P1;HPM_P2
2023/12/16 00:02:10;;;;;;;20.52;4.07;;;;;;;;;;5045278;28;20080;-82
2023/12/16 00:04:36;;;;;;;13.55;3.65;;;;;;;;;;5052132;28;20053;-82
2023/12/16 00:07:02;;;;;;;14.45;4.75;;;;;;;;;;5033566;28;20792;-82
2023/12/16 00:09:28;;;;;;;10.90;3.13;;;;;;;;;;5037666;28;20036;-81
2023/12/16 00:11:54;;;;;;;13.48;3.75;;;;;;;;;;5029415;28;20041;-81
2023/12/16 00:14:20;;;;;;;12.38;3.58;;;;;;;;;;5029341;28;20040;-82
2023/12/16 00:16:46;;;;;;;11.48;3.70;;;;;;;;;;5043713;28;20500;-83
2023/12/16 00:19:12;;;;;;;13.00;4.30;;;;;;;;;;5032642;28;20033;-82
2023/12/16 00:21:38;;;;;;;23.25;5.43;;;;;;;;;;5047456;28;20096;-82
2023/12/16 00:24:06;;;;;;;14.70;4.15;;;;;;;;;;5032092;28;20072;-82
2023/12/16 00:26:32;;;;;;;18.30;3.60;;;;;;;;;;5041911;28;20112;-82
2023/12/16 00:28:59;;;;;;;14.10;3.47;;;;;;;;;;5026789;28;20055;-82
2023/12/16 00:31:25;;;;;;;12.52;3.08;;;;;;;;;;5047796;28;20043;-82
2023/12/16 00:33:51;;;;;;;13.07;3.15;;;;;;;;;;5050179;28;20036;-82
2023/12/16 00:36:17;;;;;;;17.27;4.07;;;;;;;;;;5043855;28;20045;-82
2023/12/16 00:38:43;;;;;;;14.77;4.45;;;;;;;;;;5050918;28;20037;-82
2023/12/16 00:41:10;;;;;;;16.92;4.03;;;;;;;;;;5047988;28;20037;-82
2023/12/16 00:43:36;;;;;;;11.70;3.60;;;;;;;;;;5053376;28;20052;-82
2023/12/16 00:46:02;;;;;;;11.48;3.40;;;;;;;;;;5039564;28;20036;-82
2023/12/16 00:48:28;;;;;;;12.68;3.80;;;;;;;;;;5048091;28;20094;-82
2023/12/16 00:50:54;;;;;;;10.20;2.78;;;;;;;;;;5026826;28;20043;-81
2023/12/16 00:53:21;;;;;;;13.98;3.17;;;;;;;;;;5042041;28;20049;-82
2023/12/16 00:55:47;;;;;;;15.20;3.50;;;;;;;;;;5048676;28;20083;-82
2023/12/16 00:58:13;;;;;;;13.57;3.53;;;;;;;;;;5047151;28;20056;-82
2023/12/16 01:00:42;;;;;;;7.10;3.30;;;;;;;;;;5050413;28;20431;-82
2023/12/16 01:03:08;;;;;;;7.88;2.63;;;;;;;;;;5049288;28;20041;-82
2023/12/16 01:05:34;;;;;;;10.10;2.53;;;;;;;;;;5059267;28;20045;-82
2023/12/16 01:08:00;;;;;;;17.00;2.90;;;;;;;;;;5044277;28;20407;-82
2023/12/16 01:10:26;;;;;;;11.48;3.00;;;;;;;;;;5050524;28;20390;-81
2023/12/16 01:12:52;;;;;;;11.18;3.00;;;;;;;;;;5030551;28;20067;-82
2023/12/16 01:15:18;;;;;;;6.82;2.83;;;;;;;;;;5047607;28;20032;-82
2023/12/16 01:17:44;;;;;;;8.93;3.30;;;;;;;;;;5050810;28;20037;-82
2023/12/16 01:20:10;;;;;;;7.50;3.85;;;;;;;;;;5049098;28;20049;-83
2023/12/16 01:22:37;;;;;;;10.25;2.75;;;;;;;;;;5061771;28;20077;-83
2023/12/16 01:25:03;;;;;;;10.68;2.67;;;;;;;;;;5045726;28;20058;-83
2023/12/16 01:27:29;;;;;;;10.45;2.75;;;;;;;;;;5033871;28;20167;-82
2023/12/16 01:29:55;;;;;;;14.45;3.25;;;;;;;;;;5063862;28;20123;-82
2023/12/16 01:32:21;;;;;;;10.27;3.20;;;;;;;;;;5049094;28;20041;-83
2023/12/16 01:34:47;;;;;;;10.25;2.28;;;;;;;;;;5041176;28;20071;-84
2023/12/16 01:37:13;;;;;;;6.95;2.90;;;;;;;;;;5042435;28;20037;-83
2023/12/16 01:39:39;;;;;;;6.85;3.00;;;;;;;;;;5044278;28;20115;-82
2023/12/16 01:42:05;;;;;;;9.90;2.25;;;;;;;;;;5044537;28;20044;-82
2023/12/16 01:44:31;;;;;;;15.25;3.00;;;;;;;;;;5044842;28;20500;-83
2023/12/16 01:46:57;;;;;;;12.07;3.00;;;;;;;;;;5028605;28;20548;-82
2023/12/16 01:49:24;;;;;;;9.68;2.70;;;;;;;;;;5049019;28;20044;-82
2023/12/16 01:51:50;;;;;;;9.57;2.75;;;;;;;;;;5046416;28;20059;-83
2023/12/16 01:54:16;;;;;;;8.60;2.58;;;;;;;;;;5045115;28;20035;-82
2023/12/16 01:56:43;;;;;;;8.32;2.70;;;;;;;;;;5049591;28;20049;-83
2023/12/16 01:59:10;;;;;;;9.95;2.65;;;;;;;;;;5050103;28;20049;-82
2023/12/16 02:01:36;;;;;;;9.55;2.90;;;;;;;;;;5038271;28;20115;-83
2023/12/16 02:04:02;;;;;;;7.68;2.67;;;;;;;;;;5051593;28;20101;-83
2023/12/16 02:06:28;;;;;;;6.97;2.38;;;;;;;;;;5035085;28;20071;-84
2023/12/16 02:08:54;;;;;;;13.55;3.40;;;;;;;;;;5062604;28;20036;-83
2023/12/16 02:11:20;;;;;;;9.60;2.35;;;;;;;;;;5081272;28;20037;-84
2023/12/16 02:13:50;;;;;;;13.77;2.30;;;;;;;;;;5077388;28;20459;-84
2023/12/16 02:16:16;;;;;;;4.90;2.08;;;;;;;;;;5081090;28;20041;-83
2023/12/16 02:18:42;;;;;;;8.13;2.05;;;;;;;;;;5061844;28;20036;-82
2023/12/16 02:21:08;;;;;;;6.85;2.20;;;;;;;;;;5062557;28;20037;-84
2023/12/16 02:23:37;;;;;;;6.30;1.80;;;;;;;;;;5063217;28;20037;-84
2023/12/16 02:26:03;;;;;;;13.05;2.85;;;;;;;;;;5090036;28;20044;-83
2023/12/16 02:28:30;;;;;;;14.68;2.33;;;;;;;;;;5052967;28;20398;-84
2023/12/16 02:30:56;;;;;;;7.30;1.90;;;;;;;;;;5048889;28;22343;-83
2023/12/16 02:33:22;;;;;;;14.88;2.65;;;;;;;;;;5067196;28;20041;-83
2023/12/16 02:35:48;;;;;;;8.90;1.80;;;;;;;;;;5048912;28;20559;-84
2023/12/16 02:38:15;;;;;;;11.35;2.20;;;;;;;;;;5049056;28;20484;-83
2023/12/16 02:40:42;;;;;;;8.57;2.20;;;;;;;;;;5086051;28;20051;-84
2023/12/16 02:43:09;;;;;;;13.38;2.92;;;;;;;;;;5068242;28;20119;-83
2023/12/16 02:45:35;;;;;;;10.23;2.30;;;;;;;;;;5051481;28;20044;-83
2023/12/16 02:48:01;;;;;;;8.57;1.95;;;;;;;;;;5067580;28;20047;-83
2023/12/16 02:50:27;;;;;;;9.15;1.83;;;;;;;;;;5062887;28;20053;-83
2023/12/16 02:52:53;;;;;;;7.22;2.22;;;;;;;;;;5081600;28;20377;-83
2023/12/16 02:55:20;;;;;;;10.10;3.22;;;;;;;;;;5084483;28;20089;-83
2023/12/16 02:57:46;;;;;;;12.27;2.25;;;;;;;;;;5064652;28;20055;-84
2023/12/16 03:00:12;;;;;;;10.43;1.85;;;;;;;;;;5055233;28;20041;-83
2023/12/16 03:02:38;;;;;;;7.40;2.20;;;;;;;;;;5030592;28;20076;-83
2023/12/16 03:05:04;;;;;;;18.33;4.53;;;;;;;;;;5053202;28;20074;-83
2023/12/16 03:07:30;;;;;;;10.88;2.88;;;;;;;;;;5049614;28;20056;-83
2023/12/16 03:09:56;;;;;;;9.60;2.13;;;;;;;;;;5062052;28;20097;-83
2023/12/16 03:12:24;;;;;;;7.78;2.30;;;;;;;;;;5038533;28;20044;-83
2023/12/16 03:14:50;;;;;;;9.35;2.17;;;;;;;;;;5060194;28;20110;-84
2023/12/16 03:17:16;;;;;;;14.75;2.33;;;;;;;;;;5062340;28;20163;-83
2023/12/16 03:19:43;;;;;;;10.98;1.58;;;;;;;;;;5032204;28;20040;-83
2023/12/16 03:22:09;;;;;;;13.88;2.63;;;;;;;;;;5061770;28;20412;-84
2023/12/16 03:24:35;;;;;;;13.85;2.83;;;;;;;;;;5080010;28;20117;-83
2023/12/16 03:27:01;;;;;;;10.70;1.92;;;;;;;;;;5046169;28;20040;-83
2023/12/16 03:29:28;;;;;;;10.20;2.50;;;;;;;;;;5049122;28;20049;-83
2023/12/16 03:31:55;;;;;;;15.10;2.15;;;;;;;;;;5082261;28;20052;-83
2023/12/16 03:34:22;;;;;;;11.60;2.35;;;;;;;;;;5047564;28;20056;-83
2023/12/16 03:36:48;;;;;;;13.20;2.50;;;;;;;;;;5047370;28;20039;-83
2023/12/16 03:39:14;;;;;;;8.80;2.17;;;;;;;;;;5065227;28;20055;-83
2023/12/16 03:41:40;;;;;;;15.07;3.28;;;;;;;;;;5065768;28;20131;-82
2023/12/16 03:44:06;;;;;;;12.40;2.80;;;;;;;;;;5047124;28;20029;-82
2023/12/16 03:46:32;;;;;;;9.80;2.45;;;;;;;;;;5057465;28;20071;-82
2023/12/16 03:48:58;;;;;;;11.23;2.40;;;;;;;;;;5049682;28;20412;-82
2023/12/16 03:51:24;;;;;;;13.73;2.58;;;;;;;;;;5064051;28;20028;-82
2023/12/16 03:53:50;;;;;;;8.38;2.40;;;;;;;;;;5079119;28;20108;-82
2023/12/16 03:56:16;;;;;;;13.10;2.40;;;;;;;;;;5054905;28;20036;-82
2023/12/16 03:58:42;;;;;;;9.25;2.80;;;;;;;;;;5065141;28;20053;-82
2023/12/16 04:01:13;;;;;;;7.85;1.92;;;;;;;;;;5059768;28;20060;-82
2023/12/16 04:03:42;;;;;;;17.52;3.60;;;;;;;;;;5048684;28;20125;-82
2023/12/16 04:06:12;;;;;;;17.65;4.00;;;;;;;;;;5036219;28;20047;-82
2023/12/16 04:08:39;;;;;;;7.32;2.10;;;;;;;;;;5063556;28;20036;-82
2023/12/16 04:11:05;;;;;;;9.77;3.05;;;;;;;;;;5078719;28;20040;-82
2023/12/16 04:13:31;;;;;;;12.75;2.53;;;;;;;;;;5032688;28;20177;-82
2023/12/16 04:15:57;;;;;;;14.00;2.72;;;;;;;;;;5046569;28;20037;-82
2023/12/16 04:18:23;;;;;;;17.27;2.88;;;;;;;;;;5049482;28;20040;-82
2023/12/16 04:20:49;;;;;;;15.02;2.90;;;;;;;;;;5032256;28;20032;-82
2023/12/16 04:23:15;;;;;;;11.70;2.92;;;;;;;;;;5052518;28;20048;-82
2023/12/16 04:25:41;;;;;;;11.82;3.58;;;;;;;;;;5036969;28;20403;-82
2023/12/16 04:28:08;;;;;;;12.35;2.58;;;;;;;;;;5080621;28;20044;-82
2023/12/16 04:30:34;;;;;;;10.38;2.55;;;;;;;;;;5047550;28;20044;-82
2023/12/16 04:33:00;;;;;;;15.68;2.97;;;;;;;;;;5054163;28;20048;-82
2023/12/16 04:35:26;;;;;;;11.60;3.13;;;;;;;;;;5049525;28;20131;-82
2023/12/16 04:37:52;;;;;;;17.02;3.30;;;;;;;;;;5081919;28;20472;-82
2023/12/16 04:40:18;;;;;;;13.90;2.72;;;;;;;;;;5034201;28;20040;-82
2023/12/16 04:42:44;;;;;;;18.65;3.42;;;;;;;;;;5063120;28;20518;-82
2023/12/16 04:45:10;;;;;;;16.67;2.63;;;;;;;;;;5075920;28;20051;-82
2023/12/16 04:47:37;;;;;;;10.70;2.38;;;;;;;;;;5044357;28;20492;-82
2023/12/16 04:50:03;;;;;;;14.18;2.90;;;;;;;;;;5043914;28;20040;-84
2023/12/16 04:52:30;;;;;;;13.68;3.22;;;;;;;;;;5027304;28;20049;-83
2023/12/16 04:54:56;;;;;;;18.65;3.60;;;;;;;;;;5077895;28;20657;-83
2023/12/16 04:57:22;;;;;;;10.25;2.33;;;;;;;;;;5032534;28;20436;-83
2023/12/16 04:59:48;;;;;;;11.90;2.92;;;;;;;;;;5031371;28;20036;-83
2023/12/16 05:02:14;;;;;;;14.43;2.80;;;;;;;;;;5074246;28;20071;-83
2023/12/16 05:04:43;;;;;;;14.63;4.55;;;;;;;;;;5077746;28;20038;-83
2023/12/16 05:07:09;;;;;;;13.25;3.22;;;;;;;;;;5045799;28;20048;-84
2023/12/16 05:09:35;;;;;;;16.65;4.78;;;;;;;;;;5081684;28;20032;-84
2023/12/16 05:12:01;;;;;;;12.43;3.08;;;;;;;;;;5065542;28;20040;-83
2023/12/16 05:14:27;;;;;;;19.48;4.00;;;;;;;;;;5050294;28;20110;-83
2023/12/16 05:16:54;;;;;;;13.25;2.70;;;;;;;;;;5016991;28;20036;-84
2023/12/16 05:19:20;;;;;;;11.27;2.92;;;;;;;;;;5033784;28;20084;-83
2023/12/16 05:21:46;;;;;;;13.30;2.60;;;;;;;;;;5063989;28;20043;-83
2023/12/16 05:24:12;;;;;;;15.45;3.47;;;;;;;;;;5035141;28;20478;-83
2023/12/16 05:26:38;;;;;;;18.25;3.08;;;;;;;;;;5064861;28;20609;-84
2023/12/16 05:29:04;;;;;;;26.23;2.97;;;;;;;;;;5041817;28;20170;-83
2023/12/16 05:31:30;;;;;;;15.27;3.45;;;;;;;;;;5085244;28;20036;-83
2023/12/16 05:33:57;;;;;;;19.05;2.58;;;;;;;;;;5033966;28;20063;-84
2023/12/16 05:36:23;;;;;;;15.13;3.55;;;;;;;;;;5056384;28;20518;-83
2023/12/16 05:38:49;;;;;;;17.52;3.78;;;;;;;;;;5053479;28;20061;-83
2023/12/16 05:41:15;;;;;;;18.95;3.67;;;;;;;;;;5052832;28;20044;-83
2023/12/16 05:43:41;;;;;;;21.40;3.55;;;;;;;;;;5066070;28;20040;-84
2023/12/16 05:46:07;;;;;;;19.70;4.13;;;;;;;;;;5034856;28;20044;-84
2023/12/16 05:48:35;;;;;;;15.13;3.22;;;;;;;;;;5052562;28;20056;-83
2023/12/16 05:51:02;;;;;;;18.13;3.90;;;;;;;;;;5067163;28;20131;-83
2023/12/16 05:53:28;;;;;;;19.83;3.90;;;;;;;;;;5083814;28;20037;-83
2023/12/16 05:55:54;;;;;;;19.85;3.80;;;;;;;;;;5054288;28;20045;-83
2023/12/16 05:58:20;;;;;;;19.67;4.22;;;;;;;;;;5052116;28;20055;-84
2023/12/16 06:00:46;;;;;;;24.13;4.30;;;;;;;;;;5049005;28;20407;-83
2023/12/16 06:03:12;;;;;;;13.70;3.40;;;;;;;;;;5053136;28;20036;-83
2023/12/16 06:05:38;;;;;;;12.93;3.75;;;;;;;;;;5054117;28;20491;-82
2023/12/16 06:08:04;;;;;;;20.63;4.88;;;;;;;;;;5052100;28;20530;-82
2023/12/16 06:10:30;;;;;;;11.70;4.13;;;;;;;;;;5079419;28;20642;-83
2023/12/16 06:12:57;;;;;;;20.50;4.68;;;;;;;;;;5052006;28;20075;-83
2023/12/16 06:15:23;;;;;;;16.63;5.00;;;;;;;;;;5085560;28;20403;-83
2023/12/16 06:17:49;;;;;;;15.77;4.15;;;;;;;;;;5057114;28;20028;-82
2023/12/16 06:20:16;;;;;;;20.35;4.25;;;;;;;;;;5038060;28;20033;-83
2023/12/16 06:22:42;;;;;;;24.45;4.57;;;;;;;;;;5065280;28;20049;-82
2023/12/16 06:25:08;;;;;;;24.00;5.07;;;;;;;;;;5032145;28;20487;-82
2023/12/16 06:27:34;;;;;;;21.20;4.88;;;;;;;;;;5050557;28;20059;-82
2023/12/16 06:30:00;;;;;;;19.67;4.90;;;;;;;;;;5082780;28;20048;-82
2023/12/16 06:32:26;;;;;;;25.58;5.13;;;;;;;;;;5042614;28;20040;-82
2023/12/16 06:34:52;;;;;;;26.75;5.35;;;;;;;;;;5073246;28;20036;-82
2023/12/16 06:37:18;;;;;;;30.52;6.70;;;;;;;;;;5055923;28;20036;-82
2023/12/16 06:39:44;;;;;;;29.08;5.82;;;;;;;;;;5038591;28;20083;-81
2023/12/16 06:42:10;;;;;;;29.27;5.93;;;;;;;;;;5038842;28;20153;-81
2023/12/16 06:44:36;;;;;;;30.15;6.68;;;;;;;;;;5070789;28;20036;-81
2023/12/16 06:47:02;;;;;;;35.95;7.80;;;;;;;;;;5061014;28;20058;-81
2023/12/16 06:49:28;;;;;;;30.65;7.90;;;;;;;;;;5059606;28;20130;-81
2023/12/16 06:51:54;;;;;;;37.55;8.52;;;;;;;;;;5056307;28;20089;-81
2023/12/16 06:54:21;;;;;;;38.95;7.70;;;;;;;;;;5040078;28;20131;-81
2023/12/16 06:56:47;;;;;;;37.22;10.40;;;;;;;;;;5041713;28;20036;-82
2023/12/16 06:59:13;;;;;;;42.38;8.93;;;;;;;;;;5040035;28;20484;-81
2023/12/16 07:01:39;;;;;;;37.55;10.27;;;;;;;;;;5066577;28;20043;-81
2023/12/16 07:04:05;;;;;;;48.10;10.65;;;;;;;;;;5063589;28;20396;-81
2023/12/16 07:06:31;;;;;;;49.05;10.95;;;;;;;;;;5038944;28;20037;-81
2023/12/16 07:08:57;;;;;;;51.60;11.95;;;;;;;;;;5058486;28;20051;-81
2023/12/16 07:11:24;;;;;;;46.25;11.13;;;;;;;;;;5038897;28;20052;-84
2023/12/16 07:13:50;;;;;;;62.33;13.02;;;;;;;;;;5051990;28;20044;-83
2023/12/16 07:16:16;;;;;;;40.22;11.27;;;;;;;;;;5045348;28;20437;-83
2023/12/16 07:18:43;;;;;;;50.20;10.77;;;;;;;;;;5035197;28;20044;-83
2023/12/16 07:21:09;;;;;;;47.60;11.27;;;;;;;;;;5032639;28;20081;-83
2023/12/16 07:23:35;;;;;;;47.92;12.45;;;;;;;;;;5043955;28;20046;-83
2023/12/16 07:26:01;;;;;;;55.97;15.25;;;;;;;;;;5016189;28;20099;-82
2023/12/16 07:28:28;;;;;;;52.35;12.82;;;;;;;;;;5047246;28;20056;-83
2023/12/16 07:30:54;;;;;;;67.32;14.35;;;;;;;;;;5044605;28;20058;-83
2023/12/16 07:33:20;;;;;;;57.65;13.77;;;;;;;;;;5046089;28;20097;-83
2023/12/16 07:35:46;;;;;;;54.78;15.23;;;;;;;;;;5013249;28;20079;-83
2023/12/16 07:38:12;;;;;;;68.38;15.90;;;;;;;;;;5049381;28;20039;-83
2023/12/16 07:40:38;;;;;;;64.68;16.45;;;;;;;;;;5044443;28;20470;-84
2023/12/16 07:43:04;;;;;;;69.78;16.50;;;;;;;;;;5082745;28;20109;-83
2023/12/16 07:45:30;;;;;;;61.17;17.60;;;;;;;;;;5050949;28;20076;-83
2023/12/16 07:47:56;;;;;;;72.57;17.83;;;;;;;;;;5032335;28;20049;-83
2023/12/16 07:50:23;;;;;;;49.05;15.57;;;;;;;;;;5049482;28;20041;-83
2023/12/16 07:52:49;;;;;;;78.32;17.67;;;;;;;;;;5049337;28;20399;-83
2023/12/16 07:55:15;;;;;;;84.80;17.98;;;;;;;;;;5062874;28;20040;-83
2023/12/16 07:57:41;;;;;;;62.72;16.63;;;;;;;;;;5048144;28;20056;-84
2023/12/16 08:00:09;;;;;;;87.60;21.55;;;;;;;;;;5035625;28;20101;-83
2023/12/16 08:02:35;;;;;;;58.20;16.95;;;;;;;;;;5082589;28;20043;-83
2023/12/16 08:05:03;;;;;;;78.75;20.58;;;;;;;;;;5026919;28;21964;-83
2023/12/16 08:07:29;;;;;;;63.85;19.25;;;;;;;;;;5043337;28;20123;-83
2023/12/16 08:09:58;;;;;;;69.07;17.88;;;;;;;;;;5032500;28;20403;-83
2023/12/16 08:12:24;;;;;;;83.10;19.65;;;;;;;;;;5029617;28;20052;-84
2023/12/16 08:14:50;;;;;;;72.85;17.75;;;;;;;;;;5043917;28;20044;-83
2023/12/16 08:17:16;;;;;;;53.38;14.38;;;;;;;;;;5067181;28;20127;-83
2023/12/16 08:19:43;;;;;;;75.68;20.23;;;;;;;;;;5048665;28;20102;-84
2023/12/16 08:22:09;;;;;;;47.67;14.05;;;;;;;;;;5063080;28;20094;-84
2023/12/16 08:24:35;;;;;;;74.00;20.20;;;;;;;;;;5061503;28;20052;-83
2023/12/16 08:27:01;;;;;;;73.10;17.98;;;;;;;;;;5044460;28;20513;-83
2023/12/16 08:29:27;;;;;;;82.32;22.00;;;;;;;;;;5044011;28;20636;-83
2023/12/16 08:31:53;;;;;;;72.22;19.00;;;;;;;;;;5029159;28;20040;-84
2023/12/16 08:34:19;;;;;;;83.35;20.50;;;;;;;;;;5043503;28;20047;-84
2023/12/16 08:36:48;;;;;;;84.18;21.52;;;;;;;;;;5060810;28;20044;-84
2023/12/16 08:39:14;;;;;;;73.45;18.00;;;;;;;;;;5041677;28;20488;-84
2023/12/16 08:41:40;;;;;;;80.68;21.42;;;;;;;;;;5060240;28;20044;-89
2023/12/16 08:44:07;;;;;;;90.60;22.02;;;;;;;;;;5042836;28;20045;-83
2023/12/16 08:46:39;;;;;;;74.07;18.52;;;;;;;;;;5045113;28;20138;-83
2023/12/16 08:49:05;;;;;;;78.25;22.08;;;;;;;;;;5045021;28;20127;-83
2023/12/16 08:51:32;;;;;;;81.90;20.50;;;;;;;;;;5028246;28;20049;-84
2023/12/16 08:53:58;;;;;;;86.60;21.35;;;;;;;;;;5062954;28;20052;-84
2023/12/16 08:56:24;;;;;;;81.75;22.52;;;;;;;;;;5029990;28;20033;-84
2023/12/16 08:58:50;;;;;;;44.55;13.77;;;;;;;;;;5057979;28;20056;-85
2023/12/16 09:01:16;;;;;;;63.42;17.85;;;;;;;;;;5050429;28;20032;-84
2023/12/16 09:03:43;;;;;;;81.20;21.58;;;;;;;;;;5054274;28;20096;-82
2023/12/16 09:06:10;;;;;;;88.03;19.88;;;;;;;;;;5054157;28;20131;-83
2023/12/16 09:08:36;;;;;;;74.85;20.55;;;;;;;;;;5050970;28;20106;-83
2023/12/16 09:11:02;;;;;;;96.80;23.80;;;;;;;;;;5070272;28;20032;-83
2023/12/16 09:13:28;;;;;;;96.70;22.88;;;;;;;;;;5067706;28;20036;-82
2023/12/16 09:15:54;;;;;;;92.43;25.38;;;;;;;;;;5054707;28;20051;-83
2023/12/16 09:18:20;;;;;;;100.80;25.05;;;;;;;;;;5035157;28;20037;-83
2023/12/16 09:20:46;;;;;;;80.95;23.30;;;;;;;;;;5056900;28;20132;-83
2023/12/16 09:23:12;;;;;;;98.68;22.83;;;;;;;;;;5075162;28;20040;-83
2023/12/16 09:25:38;;;;;;;82.20;23.92;;;;;;;;;;5056755;28;20044;-82
2023/12/16 09:28:05;;;;;;;66.90;19.58;;;;;;;;;;5068240;28;20039;-82
2023/12/16 09:30:31;;;;;;;72.10;24.42;;;;;;;;;;5044293;28;20036;-83
2023/12/16 09:32:57;;;;;;;82.47;21.88;;;;;;;;;;5070984;28;20044;-84
2023/12/16 09:35:23;;;;;;;66.90;19.58;;;;;;;;;;5056941;28;20083;-83
2023/12/16 09:37:50;;;;;;;58.30;18.90;;;;;;;;;;5055437;28;20400;-84
2023/12/16 09:40:16;;;;;;;82.32;23.58;;;;;;;;;;5034922;28;20443;-83
2023/12/16 09:42:44;;;;;;;68.25;21.17;;;;;;;;;;5037452;28;20460;-84
2023/12/16 09:45:11;;;;;;;68.53;23.10;;;;;;;;;;5051236;28;20052;-84
2023/12/16 09:47:38;;;;;;;59.92;18.45;;;;;;;;;;5061789;28;20040;-84
2023/12/16 09:50:04;;;;;;;72.60;22.88;;;;;;;;;;5062481;28;20499;-83
2023/12/16 09:52:30;;;;;;;65.68;17.67;;;;;;;;;;5069341;28;20048;-84
2023/12/16 09:54:56;;;;;;;73.55;21.40;;;;;;;;;;5072944;28;20106;-83
2023/12/16 09:57:23;;;;;;;49.42;17.00;;;;;;;;;;5053495;28;20045;-83
2023/12/16 09:59:52;;;;;;;55.95;19.25;;;;;;;;;;5034346;28;20052;-83
2023/12/16 10:02:27;;;;;;;77.55;24.08;;;;;;;;;;5043947;28;20498;-83
2023/12/16 10:04:57;;;;;;;71.13;21.55;;;;;;;;;;5048945;28;20048;-83
2023/12/16 10:07:24;;;;;;;75.22;20.85;;;;;;;;;;5052369;28;20107;-84
2023/12/16 10:09:50;;;;;;;65.28;18.58;;;;;;;;;;5051188;28;20489;-84
2023/12/16 10:12:16;;;;;;;69.57;22.30;;;;;;;;;;5036181;28;20041;-84
2023/12/16 10:14:46;;;;;;;79.18;24.95;;;;;;;;;;5036826;28;20064;-84
2023/12/16 10:17:13;;;;;;;78.88;24.38;;;;;;;;;;5042282;28;20045;-84
2023/12/16 10:19:39;;;;;;;83.97;20.30;;;;;;;;;;5044632;28;20044;-83
2023/12/16 10:22:05;;;;;;;79.60;23.05;;;;;;;;;;5052106;28;20039;-83
2023/12/16 10:24:32;;;;;;;56.75;17.52;;;;;;;;;;5033398;28;20037;-83
2023/12/16 10:26:58;;;;;;;63.33;20.63;;;;;;;;;;5034799;28;20186;-84
2023/12/16 10:29:24;;;;;;;43.10;15.88;;;;;;;;;;5033803;28;20111;-84
2023/12/16 10:31:50;;;;;;;65.35;22.25;;;;;;;;;;5047754;28;20128;-84
2023/12/16 10:34:17;;;;;;;56.75;18.42;;;;;;;;;;5033467;28;20076;-83
2023/12/16 10:36:43;;;;;;;64.80;20.08;;;;;;;;;;5049139;28;20048;-84
2023/12/16 10:39:09;;;;;;;74.63;22.05;;;;;;;;;;5040082;28;20044;-84
2023/12/16 10:41:35;;;;;;;69.32;20.73;;;;;;;;;;5045827;28;20086;-83
2023/12/16 10:44:01;;;;;;;53.10;16.08;;;;;;;;;;5026895;28;20083;-84
2023/12/16 10:46:33;;;;;;;74.20;24.90;;;;;;;;;;5040617;28;20084;-83
2023/12/16 10:49:01;;;;;;;57.38;20.48;;;;;;;;;;5026119;28;20499;-82
2023/12/16 10:51:27;;;;;;;63.22;20.65;;;;;;;;;;5044110;28;20075;-83
2023/12/16 10:54:00;;;;;;;60.03;20.00;;;;;;;;;;5041413;28;20084;-83
2023/12/16 10:56:30;;;;;;;54.25;18.92;;;;;;;;;;5044492;28;20058;-81
2023/12/16 10:58:59;;;;;;;54.13;19.90;;;;;;;;;;5045442;28;20412;-81
2023/12/16 11:01:29;;;;;;;43.15;14.98;;;;;;;;;;5046006;28;20056;-83
2023/12/16 11:04:17;;;;;;;64.95;22.48;;;;;;;;;;5043362;28;20128;-86
2023/12/16 11:06:46;;;;;;;46.72;17.55;;;;;;;;;;5046128;28;20084;-86
2023/12/16 11:09:13;;;;;;;62.00;21.92;;;;;;;;;;5044267;28;20764;-83
2023/12/16 11:11:41;;;;;;;55.85;18.67;;;;;;;;;;5044411;28;20124;-83
2023/12/16 11:14:08;;;;;;;62.30;19.35;;;;;;;;;;5046904;28;20049;-84
2023/12/16 11:16:40;;;;;;;56.20;21.13;;;;;;;;;;5027284;28;20127;-85
2023/12/16 11:19:08;;;;;;;87.30;25.23;;;;;;;;;;5033913;28;20036;-85
2023/12/16 11:21:36;;;;;;;65.68;21.17;;;;;;;;;;5031003;28;20057;-85
2023/12/16 11:24:03;;;;;;;41.40;13.60;;;;;;;;;;5045614;28;20041;-85
2023/12/16 11:26:31;;;;;;;59.72;19.38;;;;;;;;;;5062252;28;20052;-84
2023/12/16 11:28:57;;;;;;;58.65;19.23;;;;;;;;;;5027377;28;20083;-85
2023/12/16 11:31:23;;;;;;;53.20;17.80;;;;;;;;;;5029351;28;20041;-84
2023/12/16 11:33:49;;;;;;;46.28;17.30;;;;;;;;;;5030042;28;20041;-86
2023/12/16 11:36:16;;;;;;;49.22;17.38;;;;;;;;;;5030278;28;20040;-85
2023/12/16 11:38:43;;;;;;;50.33;18.90;;;;;;;;;;5051850;28;20099;-85
2023/12/16 11:41:32;;;;;;;42.97;16.10;;;;;;;;;;5049494;28;20082;-85
2023/12/16 11:43:58;;;;;;;53.22;15.75;;;;;;;;;;5031713;28;20043;-85
2023/12/16 11:46:39;;;;;;;56.55;17.48;;;;;;;;;;5026383;28;20508;-85
2023/12/16 11:49:07;;;;;;;37.58;14.25;;;;;;;;;;5045709;28;20080;-85
2023/12/16 11:51:37;;;;;;;33.50;12.27;;;;;;;;;;5046199;28;20064;-83
2023/12/16 11:54:03;;;;;;;41.22;15.35;;;;;;;;;;5029637;28;20056;-83
2023/12/16 11:56:29;;;;;;;33.72;11.68;;;;;;;;;;5052467;28;20547;-84
2023/12/16 11:58:58;;;;;;;28.52;11.48;;;;;;;;;;5042371;28;20064;-84
2023/12/16 12:01:28;;;;;;;36.95;13.82;;;;;;;;;;5033373;28;20033;-85
2023/12/16 12:03:55;;;;;;;26.90;9.40;;;;;;;;;;5044879;28;20098;-87
2023/12/16 12:06:21;;;;;;;49.17;14.45;;;;;;;;;;5048901;28;20492;-84
2023/12/16 12:08:47;;;;;;;39.20;12.27;;;;;;;;;;5051113;28;20044;-82
2023/12/16 12:11:16;;;;;;;34.05;13.02;;;;;;;;;;5045311;28;20047;-82
2023/12/16 12:13:43;;;;;;;40.47;14.88;;;;;;;;;;5044499;28;20051;-82
2023/12/16 12:16:12;;;;;;;35.38;13.07;;;;;;;;;;5046904;28;20063;-82
2023/12/16 12:18:38;;;;;;;33.08;10.25;;;;;;;;;;5057041;28;20128;-83
2023/12/16 12:21:04;;;;;;;33.40;13.55;;;;;;;;;;5051789;28;20033;-84
2023/12/16 12:23:32;;;;;;;36.78;12.50;;;;;;;;;;5027646;28;20104;-84
2023/12/16 12:25:58;;;;;;;39.00;12.77;;;;;;;;;;5038051;28;20046;-84
2023/12/16 12:28:25;;;;;;;35.58;11.95;;;;;;;;;;5046578;28;20049;-85
2023/12/16 12:30:52;;;;;;;33.60;11.57;;;;;;;;;;5048369;28;20078;-84
2023/12/16 12:33:18;;;;;;;30.30;11.85;;;;;;;;;;5031612;28;20064;-84
2023/12/16 12:35:44;;;;;;;28.25;10.63;;;;;;;;;;5037339;28;20112;-84
2023/12/16 12:38:11;;;;;;;28.63;10.13;;;;;;;;;;5052431;28;20055;-84
2023/12/16 12:40:38;;;;;;;28.33;11.00;;;;;;;;;;5009026;28;20072;-84
2023/12/16 12:43:04;;;;;;;31.55;11.45;;;;;;;;;;5044542;28;20411;-84
2023/12/16 12:45:31;;;;;;;35.00;11.82;;;;;;;;;;5048243;28;20546;-83
2023/12/16 12:48:14;;;;;;;24.05;10.30;;;;;;;;;;5031798;28;20041;-83
2023/12/16 12:50:40;;;;;;;33.10;10.48;;;;;;;;;;5047050;28;20471;-84
2023/12/16 12:53:23;;;;;;;33.13;11.48;;;;;;;;;;5018830;28;20047;-83
2023/12/16 12:55:49;;;;;;;27.25;10.55;;;;;;;;;;5030276;28;20037;-83
2023/12/16 12:58:16;;;;;;;33.42;10.52;;;;;;;;;;5046719;28;20326;-84
2023/12/16 13:00:49;;;;;;;25.38;8.65;;;;;;;;;;5026833;28;20049;-83
2023/12/16 13:03:15;;;;;;;29.75;10.75;;;;;;;;;;5052942;28;20155;-83
2023/12/16 13:05:42;;;;;;;26.45;9.27;;;;;;;;;;5048209;28;20053;-84
2023/12/16 13:08:11;;;;;;;30.00;9.00;;;;;;;;;;5043563;28;20608;-85
2023/12/16 13:10:38;;;;;;;27.48;9.05;;;;;;;;;;5028950;28;20049;-85
2023/12/16 13:13:04;;;;;;;20.15;8.43;;;;;;;;;;5046787;28;20207;-84
2023/12/16 13:15:30;;;;;;;26.85;10.32;;;;;;;;;;5043572;28;20269;-84
2023/12/16 13:17:57;;;;;;;35.88;12.57;;;;;;;;;;5014251;28;20365;-86
2023/12/16 13:20:23;;;;;;;29.45;10.77;;;;;;;;;;5034673;28;20130;-85
2023/12/16 13:22:50;;;;;;;29.08;10.38;;;;;;;;;;5030462;28;20064;-86
2023/12/16 13:25:16;;;;;;;29.25;9.18;;;;;;;;;;5049897;28;20120;-84
2023/12/16 13:27:42;;;;;;;33.78;10.80;;;;;;;;;;5044806;28;20045;-84
2023/12/16 13:30:09;;;;;;;17.95;7.55;;;;;;;;;;5045683;28;20436;-85
2023/12/16 13:32:36;;;;;;;53.45;14.00;;;;;;;;;;5028591;28;20042;-85
2023/12/16 13:35:03;;;;;;;35.47;12.20;;;;;;;;;;5050316;28;20040;-85
2023/12/16 13:37:30;;;;;;;29.92;10.02;;;;;;;;;;5053663;28;20044;-84
2023/12/16 13:39:57;;;;;;;41.47;12.80;;;;;;;;;;5047558;28;20041;-85
2023/12/16 13:42:23;;;;;;;38.85;11.40;;;;;;;;;;5046867;28;20052;-85
2023/12/16 13:44:50;;;;;;;25.45;8.63;;;;;;;;;;5036932;28;20044;-85
2023/12/16 13:47:18;;;;;;;36.85;12.70;;;;;;;;;;5040488;28;20036;-84
2023/12/16 13:49:44;;;;;;;22.52;7.50;;;;;;;;;;5043107;28;20059;-85
2023/12/16 13:52:10;;;;;;;47.72;12.52;;;;;;;;;;5045627;28;20033;-85
2023/12/16 13:54:37;;;;;;;29.25;11.45;;;;;;;;;;5049719;28;20548;-85
2023/12/16 13:57:03;;;;;;;36.50;12.02;;;;;;;;;;5044123;28;20040;-85
2023/12/16 13:59:32;;;;;;;25.95;9.05;;;;;;;;;;5036746;28;20036;-83
2023/12/16 14:01:58;;;;;;;34.05;10.95;;;;;;;;;;5068136;28;20036;-85
2023/12/16 14:04:24;;;;;;;23.38;9.10;;;;;;;;;;5050992;28;20049;-83
2023/12/16 14:06:50;;;;;;;36.30;11.73;;;;;;;;;;5064938;28;20055;-84
2023/12/16 14:09:17;;;;;;;22.35;8.50;;;;;;;;;;5051316;28;20044;-84
2023/12/16 14:11:43;;;;;;;34.90;10.35;;;;;;;;;;5049146;28;20044;-85
2023/12/16 14:14:09;;;;;;;28.88;11.77;;;;;;;;;;5051133;28;20132;-84
2023/12/16 14:16:35;;;;;;;28.42;10.15;;;;;;;;;;5047844;28;20140;-84
2023/12/16 14:19:02;;;;;;;31.30;11.88;;;;;;;;;;5054698;28;20039;-84
2023/12/16 14:21:28;;;;;;;32.28;9.52;;;;;;;;;;5053393;28;20377;-84
2023/12/16 14:23:54;;;;;;;26.95;10.68;;;;;;;;;;5032776;28;20212;-85